Time;durP1;ratioP1;P1;durP2;ratioP2;P2;SDS_P1;SDS_P2;PMS_P1;PMS_P2;Temp;Humidity;BMP_temperature;BMP_pressure;BME280_temperature;BME280_humidity;BME280_pressure;Samples;Min_cycle;Max_cycle;Signal;HPM_P1;HPM_P2
2023/08/08 00:01:35;;;;;;;7.20;2.40;;;;;;;;;;4946655;28;96486;-81
2023/08/08 00:04:01;;;;;;;8.40;2.38;;;;;;;;;;4939131;28;93261;-82
2023/08/08 00:06:28;;;;;;;8.20;2.22;;;;;;;;;;4954672;28;93025;-80
2023/08/08 00:08:54;;;;;;;9.77;2.47;;;;;;;;;;4941586;28;92462;-81
2023/08/08 00:11:21;;;;;;;8.15;2.45;;;;;;;;;;4942199;28;92981;-80
2023/08/08 00:13:48;;;;;;;9.90;2.38;;;;;;;;;;4945015;28;93251;-80
2023/08/08 00:16:14;;;;;;;8.05;2.22;;;;;;;;;;4939770;28;92351;-81
2023/08/08 00:18:41;;;;;;;9.02;2.53;;;;;;;;;;4952079;28;93801;-81
2023/08/08 00:21:07;;;;;;;10.27;2.50;;;;;;;;;;4951529;28;93088;-81
2023/08/08 00:23:34;;;;;;;6.60;2.33;;;;;;;;;;4943682;28;92492;-81
2023/08/08 00:26:00;;;;;;;6.38;2.28;;;;;;;;;;4937081;28;94881;-80
2023/08/08 00:28:27;;;;;;;7.55;2.30;;;;;;;;;;4954494;28;93280;-81
2023/08/08 00:30:53;;;;;;;7.80;2.03;;;;;;;;;;4950609;28;95989;-80
2023/08/08 00:33:20;;;;;;;5.75;2.35;;;;;;;;;;4935256;28;93102;-81
2023/08/08 00:35:47;;;;;;;6.07;2.10;;;;;;;;;;4934281;28;92480;-82
2023/08/08 00:38:13;;;;;;;8.35;2.53;;;;;;;;;;4949512;28;92818;-80
2023/08/08 00:40:40;;;;;;;7.07;2.22;;;;;;;;;;4943844;28;93123;-79
2023/08/08 00:43:06;;;;;;;8.63;2.15;;;;;;;;;;4949974;28;91903;-81
2023/08/08 00:45:34;;;;;;;6.53;2.10;;;;;;;;;;4942933;28;93047;-80
2023/08/08 00:48:01;;;;;;;11.32;2.65;;;;;;;;;;4951785;28;92721;-82
2023/08/08 00:50:27;;;;;;;8.05;2.28;;;;;;;;;;4953241;28;95244;-80
2023/08/08 00:52:55;;;;;;;9.45;2.42;;;;;;;;;;4945711;28;95676;-82
2023/08/08 00:55:22;;;;;;;8.85;2.55;;;;;;;;;;4947533;28;92698;-80
2023/08/08 00:57:48;;;;;;;6.55;1.77;;;;;;;;;;4952118;28;93576;-80
2023/08/08 01:00:15;;;;;;;9.88;2.13;;;;;;;;;;4935247;28;94916;-80
2023/08/08 01:02:41;;;;;;;7.57;2.33;;;;;;;;;;4945680;28;92583;-79
2023/08/08 01:05:08;;;;;;;9.30;2.20;;;;;;;;;;4936656;28;94035;-79
2023/08/08 01:07:38;;;;;;;6.45;2.35;;;;;;;;;;4924191;28;93662;-79
2023/08/08 01:10:11;;;;;;;6.70;2.20;;;;;;;;;;4943980;28;92528;-80
2023/08/08 01:12:40;;;;;;;9.60;2.30;;;;;;;;;;4952393;28;95291;-80
2023/08/08 01:15:09;;;;;;;7.20;2.15;;;;;;;;;;4949396;28;94865;-80
2023/08/08 01:17:36;;;;;;;9.18;2.33;;;;;;;;;;4946212;28;95218;-82
2023/08/08 01:20:06;;;;;;;6.57;2.25;;;;;;;;;;4941463;28;92578;-82
2023/08/08 01:22:36;;;;;;;9.60;2.47;;;;;;;;;;4936058;28;92471;-80
2023/08/08 01:25:04;;;;;;;10.18;2.20;;;;;;;;;;4930649;28;93050;-80
2023/08/08 01:27:31;;;;;;;7.90;2.00;;;;;;;;;;4950702;28;93169;-80
2023/08/08 01:29:57;;;;;;;7.85;1.85;;;;;;;;;;4951032;28;92643;-80
2023/08/08 01:32:24;;;;;;;8.18;2.40;;;;;;;;;;4931358;28;93038;-80
2023/08/08 01:34:50;;;;;;;8.27;2.53;;;;;;;;;;4941655;28;95832;-83
2023/08/08 01:37:19;;;;;;;12.15;2.58;;;;;;;;;;4943683;28;95480;-80
2023/08/08 01:39:46;;;;;;;9.48;2.42;;;;;;;;;;4938913;28;95488;-81
2023/08/08 01:42:15;;;;;;;10.38;2.17;;;;;;;;;;4950642;28;92524;-81
2023/08/08 01:44:42;;;;;;;8.23;2.38;;;;;;;;;;4939407;28;94266;-80
2023/08/08 01:47:08;;;;;;;7.65;2.20;;;;;;;;;;4948948;28;95621;-81
2023/08/08 01:49:35;;;;;;;7.80;2.40;;;;;;;;;;4944712;28;92456;-81
2023/08/08 01:52:01;;;;;;;7.55;2.22;;;;;;;;;;4949096;28;94643;-80
2023/08/08 01:54:28;;;;;;;9.95;2.10;;;;;;;;;;4950052;28;93025;-80
2023/08/08 01:56:54;;;;;;;9.27;2.38;;;;;;;;;;4948354;28;93263;-80
2023/08/08 01:59:21;;;;;;;9.80;2.40;;;;;;;;;;4948715;28;95254;-80
2023/08/08 02:01:48;;;;;;;8.57;2.10;;;;;;;;;;4934580;28;92787;-80
2023/08/08 02:04:14;;;;;;;9.95;2.33;;;;;;;;;;4941215;28;94889;-81
2023/08/08 02:06:41;;;;;;;9.27;2.03;;;;;;;;;;4948805;28;93128;-80
2023/08/08 02:09:07;;;;;;;9.48;2.70;;;;;;;;;;4937037;28;92512;-81
2023/08/08 02:11:34;;;;;;;7.80;2.17;;;;;;;;;;4950168;28;94282;-81
2023/08/08 02:14:01;;;;;;;5.82;2.10;;;;;;;;;;4948638;28;95512;-81
2023/08/08 02:16:27;;;;;;;7.10;2.03;;;;;;;;;;4953268;28;94600;-81
2023/08/08 02:18:54;;;;;;;9.90;2.40;;;;;;;;;;4947748;28;92420;-81
2023/08/08 02:21:21;;;;;;;9.27;2.20;;;;;;;;;;4950675;28;92133;-82
2023/08/08 02:23:48;;;;;;;6.95;2.00;;;;;;;;;;4938872;28;92905;-81
2023/08/08 02:26:14;;;;;;;8.93;2.47;;;;;;;;;;4931492;28;94462;-81
2023/08/08 02:28:41;;;;;;;7.85;2.20;;;;;;;;;;4944025;28;94890;-81
2023/08/08 02:31:08;;;;;;;7.22;2.38;;;;;;;;;;4949175;28;95058;-82
2023/08/08 02:33:34;;;;;;;8.50;2.40;;;;;;;;;;4932427;28;95862;-80
2023/08/08 02:36:01;;;;;;;8.52;2.50;;;;;;;;;;4935505;28;92469;-80
2023/08/08 02:38:28;;;;;;;7.95;2.20;;;;;;;;;;4950990;28;95366;-80
2023/08/08 02:40:55;;;;;;;9.70;2.38;;;;;;;;;;4945961;28;92468;-80
2023/08/08 02:43:21;;;;;;;6.78;2.10;;;;;;;;;;4945322;28;92830;-79
2023/08/08 02:45:48;;;;;;;7.00;2.33;;;;;;;;;;4947176;28;92307;-80
2023/08/08 02:48:14;;;;;;;7.10;2.00;;;;;;;;;;4955547;28;92592;-80
2023/08/08 02:50:41;;;;;;;10.15;2.58;;;;;;;;;;4954713;28;92479;-79
2023/08/08 02:53:08;;;;;;;9.57;2.40;;;;;;;;;;4940122;28;96026;-79
2023/08/08 02:55:40;;;;;;;9.30;2.58;;;;;;;;;;4939094;28;92426;-81
2023/08/08 02:58:06;;;;;;;8.88;2.15;;;;;;;;;;4967361;28;93931;-82
2023/08/08 03:00:33;;;;;;;10.10;2.85;;;;;;;;;;4952846;28;94123;-80
2023/08/08 03:03:00;;;;;;;;;;;;;;;;;;4940403;28;95659;-80
2023/08/08 03:05:27;;;;;;;9.60;2.42;;;;;;;;;;4952195;28;97542;-79
2023/08/08 03:07:54;;;;;;;7.72;2.30;;;;;;;;;;4947737;28;92560;-79
2023/08/08 03:10:22;;;;;;;7.18;2.40;;;;;;;;;;4927388;28;94233;-80
2023/08/08 03:12:48;;;;;;;8.20;2.72;;;;;;;;;;4952654;28;93068;-80
2023/08/08 03:15:16;;;;;;;10.93;2.80;;;;;;;;;;4939914;28;92517;-82
2023/08/08 03:17:42;;;;;;;6.72;2.15;;;;;;;;;;4951732;28;95295;-80
2023/08/08 03:20:10;;;;;;;9.45;2.70;;;;;;;;;;4952734;28;94560;-80
2023/08/08 03:22:38;;;;;;;9.10;2.50;;;;;;;;;;4952888;28;93275;-81
2023/08/08 03:25:06;;;;;;;9.73;2.45;;;;;;;;;;4937635;28;94109;-81
2023/08/08 03:27:33;;;;;;;10.00;2.92;;;;;;;;;;4949886;28;92712;-81
2023/08/08 03:30:00;;;;;;;10.40;2.63;;;;;;;;;;4947081;28;93265;-82
2023/08/08 03:32:32;;;;;;;9.00;2.55;;;;;;;;;;4948272;28;94166;-81
2023/08/08 03:34:59;;;;;;;10.20;2.97;;;;;;;;;;4935506;28;91722;-81
2023/08/08 03:37:25;;;;;;;7.30;2.40;;;;;;;;;;4954737;28;94800;-81
2023/08/08 03:39:52;;;;;;;7.40;2.60;;;;;;;;;;4941683;28;96002;-81
2023/08/08 03:42:19;;;;;;;9.65;2.58;;;;;;;;;;4944641;28;94918;-82
2023/08/08 03:44:46;;;;;;;8.70;2.60;;;;;;;;;;4945001;28;96306;-81
2023/08/08 03:47:13;;;;;;;7.28;2.53;;;;;;;;;;4948945;28;92624;-81
2023/08/08 03:49:46;;;;;;;8.40;2.40;;;;;;;;;;4941668;28;93731;-81
2023/08/08 03:52:12;;;;;;;7.38;2.40;;;;;;;;;;4950595;28;94605;-80
2023/08/08 03:54:39;;;;;;;8.50;2.55;;;;;;;;;;4946239;28;94223;-80
2023/08/08 03:57:06;;;;;;;8.95;2.70;;;;;;;;;;4945985;28;92953;-80
2023/08/08 03:59:33;;;;;;;6.15;2.53;;;;;;;;;;4950927;28;96322;-80
2023/08/08 04:02:00;;;;;;;9.07;2.80;;;;;;;;;;4938331;28;92607;-80
2023/08/08 04:04:27;;;;;;;8.15;2.45;;;;;;;;;;4947731;28;93017;-80
2023/08/08 04:06:54;;;;;;;5.90;2.33;;;;;;;;;;4943721;28;95364;-81
2023/08/08 04:09:20;;;;;;;5.20;2.10;;;;;;;;;;4949290;28;98150;-80
2023/08/08 04:11:48;;;;;;;11.85;2.58;;;;;;;;;;4940902;28;92465;-80
2023/08/08 04:14:16;;;;;;;7.95;2.72;;;;;;;;;;4950456;28;92448;-80
2023/08/08 04:16:43;;;;;;;7.85;2.75;;;;;;;;;;4952724;28;92797;-81
2023/08/08 04:19:10;;;;;;;8.15;2.90;;;;;;;;;;4948815;28;92894;-81
2023/08/08 04:21:37;;;;;;;7.43;2.50;;;;;;;;;;4951030;28;92761;-80
2023/08/08 04:24:03;;;;;;;11.00;2.70;;;;;;;;;;4946318;28;92596;-81
2023/08/08 04:26:32;;;;;;;7.45;2.30;;;;;;;;;;4944991;28;92967;-81
2023/08/08 04:28:59;;;;;;;7.57;2.60;;;;;;;;;;4952184;28;93540;-81
2023/08/08 04:31:25;;;;;;;6.85;2.20;;;;;;;;;;4946804;28;98829;-81
2023/08/08 04:33:58;;;;;;;10.27;2.45;;;;;;;;;;4935674;28;92458;-81
2023/08/08 04:36:28;;;;;;;8.20;2.60;;;;;;;;;;4930480;28;95194;-82
2023/08/08 04:38:54;;;;;;;7.88;2.50;;;;;;;;;;4945644;28;93270;-83
2023/08/08 04:41:21;;;;;;;7.85;2.40;;;;;;;;;;4941049;28;92533;-83
2023/08/08 04:43:48;;;;;;;7.25;2.10;;;;;;;;;;4918140;28;93118;-83
2023/08/08 04:46:14;;;;;;;7.80;2.47;;;;;;;;;;4943598;28;93108;-82
2023/08/08 04:48:41;;;;;;;5.65;2.47;;;;;;;;;;4954819;28;92135;-81
2023/08/08 04:51:08;;;;;;;5.53;2.30;;;;;;;;;;4949104;28;95558;-80
2023/08/08 04:53:34;;;;;;;7.28;2.30;;;;;;;;;;4945128;28;93058;-80
2023/08/08 04:56:01;;;;;;;8.15;2.60;;;;;;;;;;4948917;28;95377;-81
2023/08/08 04:58:27;;;;;;;8.88;2.63;;;;;;;;;;4950911;28;93032;-80
2023/08/08 05:00:55;;;;;;;7.63;2.30;;;;;;;;;;4950309;28;92384;-80
2023/08/08 05:03:21;;;;;;;7.82;2.95;;;;;;;;;;4937185;28;93179;-81
2023/08/08 05:05:48;;;;;;;7.22;2.30;;;;;;;;;;4944308;28;93064;-80
2023/08/08 05:08:14;;;;;;;10.50;2.90;;;;;;;;;;4939466;28;93034;-80
2023/08/08 05:10:41;;;;;;;9.43;2.70;;;;;;;;;;4944485;28;93398;-80
2023/08/08 05:13:08;;;;;;;6.55;2.13;;;;;;;;;;4951471;28;92063;-81
2023/08/08 05:15:35;;;;;;;8.55;2.60;;;;;;;;;;4938909;28;92445;-81
2023/08/08 05:18:01;;;;;;;7.00;2.13;;;;;;;;;;4948428;28;92955;-80
2023/08/08 05:20:28;;;;;;;8.60;2.50;;;;;;;;;;4941623;28;94910;-80
2023/08/08 05:22:54;;;;;;;7.55;2.35;;;;;;;;;;4944376;28;97004;-80
2023/08/08 05:25:21;;;;;;;6.75;2.25;;;;;;;;;;4944036;28;93256;-81
2023/08/08 05:27:49;;;;;;;7.78;2.80;;;;;;;;;;4944972;28;92803;-81
2023/08/08 05:30:16;;;;;;;6.90;2.30;;;;;;;;;;4948918;28;92962;-80
2023/08/08 05:32:42;;;;;;;8.15;2.47;;;;;;;;;;4940516;28;94389;-80
2023/08/08 05:35:09;;;;;;;7.18;2.13;;;;;;;;;;4940531;28;92684;-79
2023/08/08 05:37:36;;;;;;;11.98;2.63;;;;;;;;;;4950124;28;94071;-82
2023/08/08 05:40:05;;;;;;;7.07;2.28;;;;;;;;;;4952186;28;92576;-79
2023/08/08 05:42:32;;;;;;;7.35;2.30;;;;;;;;;;4931873;28;92844;-79
2023/08/08 05:44:59;;;;;;;7.78;2.10;;;;;;;;;;4952298;28;97525;-80
2023/08/08 05:47:25;;;;;;;7.32;2.40;;;;;;;;;;4950730;28;92451;-80
2023/08/08 05:49:52;;;;;;;6.43;2.42;;;;;;;;;;4949498;28;92561;-79
2023/08/08 05:52:19;;;;;;;7.70;2.50;;;;;;;;;;4953904;28;93017;-80
2023/08/08 05:54:45;;;;;;;5.93;2.05;;;;;;;;;;4967587;28;92629;-80
2023/08/08 05:57:12;;;;;;;6.60;2.20;;;;;;;;;;4973038;28;93824;-80
2023/08/08 05:59:39;;;;;;;7.38;2.13;;;;;;;;;;4968385;28;91793;-80
2023/08/08 06:02:05;;;;;;;5.45;2.08;;;;;;;;;;4959233;28;94872;-80
2023/08/08 06:04:32;;;;;;;6.78;2.00;;;;;;;;;;4975203;28;92864;-81
2023/08/08 06:07:01;;;;;;;6.28;2.15;;;;;;;;;;4977178;28;92927;-80
2023/08/08 06:09:28;;;;;;;5.97;2.10;;;;;;;;;;4970877;28;94548;-80
2023/08/08 06:11:54;;;;;;;6.70;2.00;;;;;;;;;;4962042;28;92617;-82
2023/08/08 06:14:21;;;;;;;8.38;1.92;;;;;;;;;;4971531;28;92340;-80
2023/08/08 06:16:47;;;;;;;6.45;2.05;;;;;;;;;;4949420;28;92772;-80
2023/08/08 06:19:15;;;;;;;6.00;2.10;;;;;;;;;;4949644;28;92520;-82
2023/08/08 06:21:42;;;;;;;8.43;2.20;;;;;;;;;;4951507;28;93225;-80
2023/08/08 06:24:09;;;;;;;8.00;1.92;;;;;;;;;;4953726;28;93162;-80
2023/08/08 06:26:35;;;;;;;8.48;2.00;;;;;;;;;;4947265;28;91716;-80
2023/08/08 06:29:02;;;;;;;6.38;1.80;;;;;;;;;;4942401;28;93040;-80
2023/08/08 06:31:29;;;;;;;5.53;1.80;;;;;;;;;;4939729;28;93154;-80
2023/08/08 06:33:55;;;;;;;11.35;1.60;;;;;;;;;;4936558;28;94823;-80
2023/08/08 06:36:22;;;;;;;5.00;1.40;;;;;;;;;;4935720;28;95212;-79
2023/08/08 06:38:49;;;;;;;7.05;1.65;;;;;;;;;;4933740;28;93395;-79
2023/08/08 06:41:15;;;;;;;5.93;1.50;;;;;;;;;;4931493;28;93424;-80
2023/08/08 06:43:41;;;;;;;5.80;1.20;;;;;;;;;;4935237;28;93406;-80
2023/08/08 06:46:08;;;;;;;5.38;1.50;;;;;;;;;;4937139;28;92450;-80
2023/08/08 06:48:35;;;;;;;5.22;1.60;;;;;;;;;;4942141;28;93249;-80
2023/08/08 06:51:01;;;;;;;5.35;1.30;;;;;;;;;;4951717;28;92475;-80
2023/08/08 06:53:28;;;;;;;5.15;1.42;;;;;;;;;;4951675;28;92822;-80
2023/08/08 06:55:54;;;;;;;3.85;1.40;;;;;;;;;;4944495;28;93496;-80
2023/08/08 06:58:21;;;;;;;5.75;1.40;;;;;;;;;;4952106;28;95314;-79
2023/08/08 07:00:47;;;;;;;5.20;1.50;;;;;;;;;;4942928;28;98533;-79
2023/08/08 07:03:14;;;;;;;4.40;1.20;;;;;;;;;;4935962;28;96975;-79
2023/08/08 07:05:41;;;;;;;4.35;1.27;;;;;;;;;;4948680;28;92685;-79
2023/08/08 07:08:08;;;;;;;5.03;1.20;;;;;;;;;;4945553;28;93805;-79
2023/08/08 07:10:35;;;;;;;4.32;1.20;;;;;;;;;;4932063;28;92976;-79
2023/08/08 07:13:02;;;;;;;6.57;1.40;;;;;;;;;;4940461;28;92932;-79
2023/08/08 07:15:28;;;;;;;3.85;1.30;;;;;;;;;;4941270;28;92970;-79
2023/08/08 07:17:55;;;;;;;5.70;1.42;;;;;;;;;;4944370;28;94555;-80
2023/08/08 07:20:22;;;;;;;5.80;1.20;;;;;;;;;;4952738;28;92460;-80
2023/08/08 07:22:49;;;;;;;6.30;1.45;;;;;;;;;;4931891;28;95513;-80
2023/08/08 07:25:15;;;;;;;3.58;1.25;;;;;;;;;;4942539;28;92457;-80
2023/08/08 07:27:42;;;;;;;6.78;1.40;;;;;;;;;;4939168;28;92891;-80
2023/08/08 07:30:09;;;;;;;4.35;1.25;;;;;;;;;;4950850;28;93153;-80
2023/08/08 07:32:35;;;;;;;5.18;1.30;;;;;;;;;;4945753;28;93196;-80
2023/08/08 07:35:05;;;;;;;5.90;1.25;;;;;;;;;;4942426;28;93387;-80
2023/08/08 07:37:33;;;;;;;6.05;1.40;;;;;;;;;;4941627;28;93077;-80
2023/08/08 07:40:00;;;;;;;4.38;1.10;;;;;;;;;;4934741;28;91696;-79
2023/08/08 07:42:29;;;;;;;3.60;1.10;;;;;;;;;;4938343;28;92624;-80
2023/08/08 07:44:55;;;;;;;5.32;1.20;;;;;;;;;;4948513;28;92999;-81
2023/08/08 07:47:21;;;;;;;4.25;1.10;;;;;;;;;;4949460;28;95489;-81
2023/08/08 07:49:48;;;;;;;3.33;1.02;;;;;;;;;;4948904;28;96159;-80
2023/08/08 07:52:15;;;;;;;3.95;1.10;;;;;;;;;;4952072;28;92543;-80
2023/08/08 07:54:41;;;;;;;2.38;1.00;;;;;;;;;;4936831;28;92417;-80
2023/08/08 07:57:08;;;;;;;4.25;0.90;;;;;;;;;;4946331;28;93214;-81
2023/08/08 07:59:34;;;;;;;4.82;1.20;;;;;;;;;;4932445;28;92554;-81
2023/08/08 08:02:01;;;;;;;4.18;1.05;;;;;;;;;;4938343;28;92854;-81
2023/08/08 08:04:28;;;;;;;4.32;1.00;;;;;;;;;;4938199;28;95477;-81
2023/08/08 08:06:55;;;;;;;5.05;1.05;;;;;;;;;;4950650;28;95322;-81
2023/08/08 08:09:21;;;;;;;3.13;0.98;;;;;;;;;;4945678;28;93268;-80
2023/08/08 08:11:48;;;;;;;3.72;0.90;;;;;;;;;;4954355;28;94900;-81
2023/08/08 08:14:14;;;;;;;3.97;1.10;;;;;;;;;;4945800;28;95241;-80
2023/08/08 08:16:41;;;;;;;4.05;1.02;;;;;;;;;;4951045;28;93208;-81
2023/08/08 08:19:07;;;;;;;6.18;1.23;;;;;;;;;;4941102;28;92445;-81
2023/08/08 08:21:34;;;;;;;2.03;0.90;;;;;;;;;;4952657;28;92390;-81
2023/08/08 08:24:01;;;;;;;2.65;0.95;;;;;;;;;;4936405;28;95895;-81
2023/08/08 08:26:28;;;;;;;3.90;1.05;;;;;;;;;;4942836;28;93704;-81
2023/08/08 08:28:54;;;;;;;4.78;1.15;;;;;;;;;;4945634;28;92173;-81
2023/08/08 08:31:21;;;;;;;2.97;1.00;;;;;;;;;;4944533;28;92971;-81
2023/08/08 08:33:48;;;;;;;4.55;1.00;;;;;;;;;;4916113;28;95844;-81
2023/08/08 08:36:14;;;;;;;2.38;1.00;;;;;;;;;;4939097;28;98382;-80
2023/08/08 08:38:41;;;;;;;3.63;0.88;;;;;;;;;;4942027;28;92504;-80
2023/08/08 08:41:09;;;;;;;2.75;0.80;;;;;;;;;;4947446;28;93148;-81
2023/08/08 08:43:35;;;;;;;3.72;0.80;;;;;;;;;;4950345;28;93966;-81
2023/08/08 08:46:03;;;;;;;2.10;1.00;;;;;;;;;;4950386;28;92667;-80
2023/08/08 08:48:31;;;;;;;3.97;0.98;;;;;;;;;;4946986;28;93207;-80
2023/08/08 08:50:59;;;;;;;5.63;1.00;;;;;;;;;;4938639;28;92707;-81
2023/08/08 08:53:26;;;;;;;3.75;1.02;;;;;;;;;;4937527;28;93156;-81
2023/08/08 08:55:53;;;;;;;2.42;0.60;;;;;;;;;;4938024;28;93118;-86
2023/08/08 08:58:21;;;;;;;3.15;0.80;;;;;;;;;;4937348;28;93553;-87
2023/08/08 09:00:48;;;;;;;3.10;1.08;;;;;;;;;;4943872;28;95603;-88
2023/08/08 09:03:15;;;;;;;3.85;0.85;;;;;;;;;;4940719;28;93282;-88
2023/08/08 09:05:42;;;;;;;2.53;0.90;;;;;;;;;;4942706;28;92711;-87
2023/08/08 09:08:09;;;;;;;3.63;0.90;;;;;;;;;;4950043;28;95292;-87
2023/08/08 09:10:35;;;;;;;2.40;0.90;;;;;;;;;;4942180;28;92789;-88
2023/08/08 09:13:02;;;;;;;2.30;0.70;;;;;;;;;;4947262;28;93013;-87
2023/08/08 09:15:32;;;;;;;3.13;0.90;;;;;;;;;;4944759;28;94163;-87
2023/08/08 09:18:00;;;;;;;2.80;0.77;;;;;;;;;;4951471;28;91738;-88
2023/08/08 09:20:30;;;;;;;3.30;0.77;;;;;;;;;;4947197;28;93065;-87
2023/08/08 09:22:56;;;;;;;2.65;0.90;;;;;;;;;;4915338;28;93868;-88
2023/08/08 09:25:24;;;;;;;3.78;1.00;;;;;;;;;;4936191;28;95403;-87
2023/08/08 09:27:52;;;;;;;3.72;1.00;;;;;;;;;;4951619;28;95157;-87
2023/08/08 09:30:18;;;;;;;5.43;1.00;;;;;;;;;;4955127;28;93253;-88
2023/08/08 09:32:45;;;;;;;3.05;1.30;;;;;;;;;;4952857;28;92854;-88
2023/08/08 09:35:12;;;;;;;7.82;0.90;;;;;;;;;;4936472;28;93338;-88
2023/08/08 09:37:38;;;;;;;4.97;1.00;;;;;;;;;;4950849;28;92540;-87
2023/08/08 09:40:07;;;;;;;4.22;1.10;;;;;;;;;;4942013;28;92496;-88
2023/08/08 09:42:34;;;;;;;2.88;1.00;;;;;;;;;;4953173;28;94556;-87
2023/08/08 09:45:02;;;;;;;3.40;0.82;;;;;;;;;;4955220;28;92510;-89
2023/08/08 09:47:30;;;;;;;1.67;0.70;;;;;;;;;;4949575;28;93224;-87
2023/08/08 09:50:01;;;;;;;2.15;1.10;;;;;;;;;;4936734;28;95630;-86
2023/08/08 09:52:28;;;;;;;3.28;1.10;;;;;;;;;;4949656;28;92540;-85
2023/08/08 09:54:55;;;;;;;1.75;1.00;;;;;;;;;;4934826;28;93131;-85
2023/08/08 09:57:22;;;;;;;2.65;1.02;;;;;;;;;;4937841;28;92784;-86
2023/08/08 09:59:50;;;;;;;1.98;1.00;;;;;;;;;;4940543;28;93136;-87
2023/08/08 10:02:17;;;;;;;3.47;0.90;;;;;;;;;;4930846;28;94906;-88
2023/08/08 10:04:47;;;;;;;3.70;1.38;;;;;;;;;;4936005;28;92522;-86
2023/08/08 10:07:14;;;;;;;1.85;0.82;;;;;;;;;;4927059;28;94064;-86
2023/08/08 10:09:41;;;;;;;3.20;1.00;;;;;;;;;;4929771;28;93339;-87
2023/08/08 10:12:08;;;;;;;4.30;1.30;;;;;;;;;;4951509;28;92795;-86
2023/08/08 10:14:39;;;;;;;3.10;1.00;;;;;;;;;;4955733;28;95271;-87
2023/08/08 10:17:06;;;;;;;3.50;1.00;;;;;;;;;;4935253;28;93527;-84
2023/08/08 10:19:33;;;;;;;3.72;1.00;;;;;;;;;;4950868;28;93100;-87
2023/08/08 10:22:00;;;;;;;;;;;;;;;;;;4931587;28;93190;-87
2023/08/08 10:24:33;;;;;;;1.58;1.00;;;;;;;;;;4947400;28;102642;-87
2023/08/08 10:27:01;;;;;;;2.63;1.00;;;;;;;;;;4936088;28;92957;-87
2023/08/08 10:29:29;;;;;;;2.03;1.00;;;;;;;;;;4935179;28;93186;-87
2023/08/08 10:32:05;;;;;;;2.70;1.10;;;;;;;;;;4945091;28;91741;-86
2023/08/08 10:34:42;;;;;;;2.83;1.00;;;;;;;;;;4938930;28;92699;-87
2023/08/08 10:37:10;;;;;;;2.88;1.13;;;;;;;;;;4946488;28;92414;-88
2023/08/08 10:39:37;;;;;;;2.92;0.90;;;;;;;;;;4936260;28;94982;-87
2023/08/08 10:42:04;;;;;;;2.47;1.00;;;;;;;;;;4952273;28;93183;-87
2023/08/08 10:44:31;;;;;;;2.65;1.00;;;;;;;;;;4945054;28;92481;-85
2023/08/08 10:47:00;;;;;;;3.97;1.05;;;;;;;;;;4971114;28;92818;-86
2023/08/08 10:49:26;;;;;;;2.60;1.15;;;;;;;;;;4949351;28;93167;-86
2023/08/08 10:51:53;;;;;;;2.03;1.00;;;;;;;;;;4939219;28;92795;-89
2023/08/08 10:54:27;;;;;;;2.65;1.10;;;;;;;;;;4935592;28;93488;-88
2023/08/08 10:56:54;;;;;;;4.32;1.30;;;;;;;;;;4951067;28;92516;-84
2023/08/08 10:59:24;;;;;;;3.92;1.02;;;;;;;;;;4935054;28;94172;-86
2023/08/08 11:01:52;;;;;;;4.55;1.15;;;;;;;;;;4938266;28;93800;-87
2023/08/08 11:04:19;;;;;;;2.58;1.10;;;;;;;;;;4956123;28;95021;-88
2023/08/08 11:06:47;;;;;;;3.20;1.20;;;;;;;;;;4962365;28;95253;-88
2023/08/08 11:09:14;;;;;;;2.50;1.23;;;;;;;;;;4940601;28;92442;-88
2023/08/08 11:11:42;;;;;;;4.00;1.13;;;;;;;;;;4935793;28;93138;-88
2023/08/08 11:14:11;;;;;;;5.10;0.98;;;;;;;;;;4953135;28;94261;-88
2023/08/08 11:16:38;;;;;;;3.63;1.10;;;;;;;;;;4955319;28;94087;-88
2023/08/08 11:19:05;;;;;;;1.70;0.85;;;;;;;;;;4955578;28;92461;-88
2023/08/08 11:21:36;;;;;;;2.60;1.00;;;;;;;;;;4941864;28;92905;-87
2023/08/08 11:24:03;;;;;;;3.85;1.20;;;;;;;;;;4950171;28;92508;-86
2023/08/08 11:26:31;;;;;;;2.35;0.90;;;;;;;;;;4940941;28;93418;-85
2023/08/08 11:28:59;;;;;;;1.30;0.90;;;;;;;;;;4927255;28;95498;-86
2023/08/08 11:31:25;;;;;;;1.80;1.00;;;;;;;;;;4943290;28;92553;-85
2023/08/08 11:33:54;;;;;;;2.50;0.95;;;;;;;;;;4945511;28;94457;-85
2023/08/08 11:36:22;;;;;;;4.43;1.02;;;;;;;;;;4939238;28;94461;-86
2023/08/08 11:38:49;;;;;;;1.77;0.90;;;;;;;;;;4943333;28;92850;-86
2023/08/08 11:41:16;;;;;;;1.77;1.00;;;;;;;;;;4942470;28;92909;-86
2023/08/08 11:43:43;;;;;;;2.55;1.00;;;;;;;;;;4927216;28;92471;-87
2023/08/08 11:46:13;;;;;;;2.53;1.00;;;;;;;;;;4934922;28;93425;-86
2023/08/08 11:48:40;;;;;;;5.00;1.13;;;;;;;;;;4948414;28;92971;-88
2023/08/08 11:51:09;;;;;;;2.95;1.10;;;;;;;;;;4941970;28;92626;-88
2023/08/08 11:53:36;;;;;;;3.08;1.05;;;;;;;;;;4941606;28;96151;-87
2023/08/08 11:56:03;;;;;;;3.78;1.10;;;;;;;;;;4950525;28;93282;-86
2023/08/08 11:58:30;;;;;;;2.95;1.00;;;;;;;;;;4934132;28;92697;-87
2023/08/08 12:00:57;;;;;;;2.80;1.00;;;;;;;;;;4955911;28;93009;-88
2023/08/08 12:03:27;;;;;;;2.30;1.00;;;;;;;;;;4945329;28;93015;-87
2023/08/08 12:05:53;;;;;;;4.50;1.10;;;;;;;;;;4953253;28;92977;-87
2023/08/08 12:08:21;;;;;;;2.97;1.15;;;;;;;;;;4947812;28;95558;-86
2023/08/08 12:10:48;;;;;;;;;;;;;;;;;;4924669;28;92209;-86
2023/08/08 12:13:20;;;;;;;2.75;1.30;;;;;;;;;;4944495;28;92790;-85
2023/08/08 12:15:47;;;;;;;2.15;0.80;;;;;;;;;;4934346;28;93645;-87
2023/08/08 12:18:16;;;;;;;2.67;0.90;;;;;;;;;;4942100;28;95904;-87
2023/08/08 12:20:42;;;;;;;4.97;1.02;;;;;;;;;;4942252;28;95393;-86
2023/08/08 12:23:09;;;;;;;1.60;1.00;;;;;;;;;;4941172;28;93576;-86
2023/08/08 12:25:36;;;;;;;3.40;1.05;;;;;;;;;;4944851;28;93675;-87
2023/08/08 12:28:02;;;;;;;3.50;1.05;;;;;;;;;;4941566;28;95110;-86
2023/08/08 12:30:29;;;;;;;2.95;1.00;;;;;;;;;;4948791;28;92435;-86
2023/08/08 12:32:55;;;;;;;3.65;1.15;;;;;;;;;;4930365;28;92792;-85
2023/08/08 12:35:22;;;;;;;4.10;1.20;;;;;;;;;;4939187;28;92521;-83
2023/08/08 12:37:49;;;;;;;2.22;0.82;;;;;;;;;;4931152;28;93046;-84
2023/08/08 12:40:15;;;;;;;2.65;1.00;;;;;;;;;;4951124;28;94636;-83
2023/08/08 12:42:42;;;;;;;2.75;0.93;;;;;;;;;;4951999;28;96292;-88
2023/08/08 12:45:09;;;;;;;8.05;1.10;;;;;;;;;;4944485;28;92605;-85
2023/08/08 12:47:37;;;;;;;3.13;0.90;;;;;;;;;;4948219;28;93044;-85
2023/08/08 12:50:07;;;;;;;3.25;0.93;;;;;;;;;;4950669;28;92472;-84
2023/08/08 12:52:34;;;;;;;4.80;1.05;;;;;;;;;;4935228;28;92648;-85
2023/08/08 12:55:01;;;;;;;4.95;1.23;;;;;;;;;;4944910;28;92407;-85
2023/08/08 12:57:27;;;;;;;4.43;1.08;;;;;;;;;;4940320;28;92445;-84
2023/08/08 12:59:54;;;;;;;3.08;1.00;;;;;;;;;;4950496;28;93050;-86
2023/08/08 13:02:21;;;;;;;4.50;1.05;;;;;;;;;;4948914;28;93082;-86
2023/08/08 13:04:47;;;;;;;2.33;0.93;;;;;;;;;;4936316;28;92608;-87
2023/08/08 13:07:14;;;;;;;2.97;0.90;;;;;;;;;;4941264;28;94853;-88
2023/08/08 13:09:40;;;;;;;3.30;1.08;;;;;;;;;;4940175;28;93137;-84
2023/08/08 13:12:07;;;;;;;3.03;1.20;;;;;;;;;;4938004;28;93470;-80
2023/08/08 13:14:34;;;;;;;3.00;1.00;;;;;;;;;;4949005;28;95634;-80
2023/08/08 13:17:01;;;;;;;5.43;1.00;;;;;;;;;;4938166;28;93078;-82
2023/08/08 13:19:28;;;;;;;7.97;1.20;;;;;;;;;;4935072;28;92824;-83
2023/08/08 13:21:54;;;;;;;3.90;1.20;;;;;;;;;;4932673;28;93680;-84
2023/08/08 13:24:22;;;;;;;5.32;1.50;;;;;;;;;;4950669;28;94502;-82
2023/08/08 13:26:49;;;;;;;3.90;1.10;;;;;;;;;;4947258;28;93222;-81
2023/08/08 13:29:16;;;;;;;2.13;0.90;;;;;;;;;;4950897;28;92663;-80
2023/08/08 13:31:43;;;;;;;2.72;1.10;;;;;;;;;;4947736;28;94833;-80
2023/08/08 13:34:09;;;;;;;4.28;1.20;;;;;;;;;;4935853;28;95304;-79
2023/08/08 13:36:36;;;;;;;4.15;1.10;;;;;;;;;;4935538;28;92685;-80
2023/08/08 13:39:04;;;;;;;4.05;1.00;;;;;;;;;;4944615;28;93148;-79
2023/08/08 13:41:30;;;;;;;4.28;1.00;;;;;;;;;;4948217;28;93277;-82
2023/08/08 13:43:57;;;;;;;3.65;1.08;;;;;;;;;;4948095;28;92866;-83
2023/08/08 13:46:23;;;;;;;3.95;1.00;;;;;;;;;;4948936;28;92468;-82
2023/08/08 13:48:50;;;;;;;4.60;1.10;;;;;;;;;;4959275;28;92451;-82
2023/08/08 13:51:17;;;;;;;3.35;1.05;;;;;;;;;;4969724;28;92144;-81
2023/08/08 13:53:45;;;;;;;5.47;1.27;;;;;;;;;;4974540;28;92678;-80
2023/08/08 13:56:11;;;;;;;2.45;1.00;;;;;;;;;;4966120;28;95036;-82
2023/08/08 13:58:38;;;;;;;4.93;1.20;;;;;;;;;;4967473;28;94241;-83
2023/08/08 14:01:04;;;;;;;2.22;1.00;;;;;;;;;;4959872;28;92546;-83
2023/08/08 14:03:31;;;;;;;3.28;1.20;;;;;;;;;;4965864;28;91715;-84
2023/08/08 14:05:58;;;;;;;3.35;1.10;;;;;;;;;;4972051;28;91959;-84
2023/08/08 14:08:24;;;;;;;3.10;1.20;;;;;;;;;;4954709;28;94673;-82
2023/08/08 14:10:51;;;;;;;4.03;0.98;;;;;;;;;;4946102;28;92843;-83
2023/08/08 14:13:19;;;;;;;3.97;1.02;;;;;;;;;;4956018;28;92807;-83
2023/08/08 14:15:45;;;;;;;3.05;1.10;;;;;;;;;;4941911;28;92681;-83
2023/08/08 14:18:12;;;;;;;2.63;1.00;;;;;;;;;;4949002;28;93044;-86
2023/08/08 14:20:39;;;;;;;4.35;1.10;;;;;;;;;;4959235;28;94893;-82
2023/08/08 14:23:05;;;;;;;2.50;1.00;;;;;;;;;;4940233;28;92970;-84
2023/08/08 14:25:32;;;;;;;4.18;1.38;;;;;;;;;;4952151;28;92869;-82
2023/08/08 14:28:00;;;;;;;7.97;1.48;;;;;;;;;;4941773;28;93259;-82
2023/08/08 14:30:28;;;;;;;4.03;1.15;;;;;;;;;;4942967;28;96270;-83
2023/08/08 14:32:54;;;;;;;4.18;1.00;;;;;;;;;;4942235;28;93011;-82
2023/08/08 14:35:21;;;;;;;2.67;1.10;;;;;;;;;;4940344;28;95279;-83
2023/08/08 14:37:47;;;;;;;2.70;1.10;;;;;;;;;;4938654;28;93916;-84
2023/08/08 14:40:14;;;;;;;4.00;1.23;;;;;;;;;;4952721;28;93584;-82
2023/08/08 14:42:40;;;;;;;4.65;1.42;;;;;;;;;;4949578;28;92960;-83